Time;durP1;ratioP1;P1;durP2;ratioP2;P2;SDS_P1;SDS_P2;PMS_P1;PMS_P2;Temp;Humidity;BMP_temperature;BMP_pressure;BME280_temperature;BME280_humidity;BME280_pressure;Samples;Min_cycle;Max_cycle;Signal;HPM_P1;HPM_P2
2022/04/16 00:03:52;;;;;;;37.83;22.92;;;;;;;3.80;94.68;102815.44;10379708;28;20431;-77
2022/04/16 00:08:52;;;;;;;41.10;27.92;;;;;;;3.80;94.58;102815.44;10442242;28;20076;-77
2022/04/16 00:13:53;;;;;;;41.38;28.40;;;;;;;3.71;93.92;102805.00;10422263;28;20037;-77
2022/04/16 00:18:56;;;;;;;39.08;25.05;;;;;;;3.69;94.21;102814.25;10404734;28;20476;-76
2022/04/16 00:23:57;;;;;;;39.90;27.05;;;;;;;3.56;93.79;102806.88;10404488;28;20132;-77
2022/04/16 00:28:58;;;;;;;30.80;20.90;;;;;;;3.33;93.83;102810.50;10361108;28;20053;-77
2022/04/16 00:33:58;;;;;;;41.35;30.02;;;;;;;3.32;94.51;102810.31;10393594;28;20437;-77
2022/04/16 00:38:59;;;;;;;49.10;31.13;;;;;;;3.30;94.59;102812.75;10398997;28;20507;-77
2022/04/16 00:44:00;;;;;;;42.13;27.67;;;;;;;3.25;94.47;102816.50;10381360;28;20497;-77
2022/04/16 00:49:01;;;;;;;40.65;27.13;;;;;;;3.04;94.31;102818.59;10430576;28;20033;-77
2022/04/16 00:54:01;;;;;;;44.67;28.08;;;;;;;3.01;94.38;102814.75;10421955;28;20076;-77
2022/04/16 00:59:02;;;;;;;46.08;31.13;;;;;;;3.04;94.46;102817.66;10398354;28;20074;-77
2022/04/16 01:04:02;;;;;;;48.63;31.63;;;;;;;2.98;94.60;102822.16;10348713;28;20108;-76
2022/04/16 01:09:03;;;;;;;46.15;29.30;;;;;;;2.93;95.23;102830.34;10431625;28;20028;-77
2022/04/16 01:14:04;;;;;;;46.20;29.95;;;;;;;2.84;94.92;102829.31;10402756;28;20049;-77
2022/04/16 01:19:08;;;;;;;37.55;27.48;;;;;;;2.70;94.80;102832.03;10359066;28;20069;-76
2022/04/16 01:24:09;;;;;;;45.38;29.20;;;;;;;2.62;95.22;102837.28;10394545;28;20397;-77
2022/04/16 01:29:10;;;;;;;52.95;31.90;;;;;;;2.64;95.28;102840.97;10380555;28;20048;-76
2022/04/16 01:34:10;;;;;;;55.13;37.03;;;;;;;2.73;95.72;102843.66;10356128;28;20056;-77
2022/04/16 01:39:11;;;;;;;52.30;31.70;;;;;;;3.08;95.71;102841.47;10410035;28;20037;-76
2022/04/16 01:44:12;;;;;;;47.42;33.47;;;;;;;3.36;95.58;102851.31;10406279;28;20091;-77
2022/04/16 01:49:13;;;;;;;51.08;33.25;;;;;;;3.39;95.21;102849.06;10421892;28;20059;-77
2022/04/16 01:54:13;;;;;;;48.35;32.03;;;;;;;3.43;nan;102846.03;10405757;28;20065;-77
2022/04/16 01:59:14;;;;;;;50.55;32.08;;;;;;;3.38;94.43;102850.75;10430326;28;20100;-77
2022/04/16 02:04:14;;;;;;;47.15;31.67;;;;;;;3.19;94.19;102847.81;10443535;28;20059;-77
2022/04/16 02:09:15;;;;;;;44.55;30.00;;;;;;;3.01;94.79;102853.53;10465069;28;20056;-77
2022/04/16 02:14:15;;;;;;;45.72;31.90;;;;;;;2.73;94.87;102853.06;10441659;28;20433;-77
2022/04/16 02:19:16;;;;;;;56.30;35.38;;;;;;;2.78;95.44;102857.09;10454280;28;20082;-76
2022/04/16 02:24:17;;;;;;;50.78;31.92;;;;;;;2.69;95.02;102850.91;10420855;28;20037;-76
2022/04/16 02:29:17;;;;;;;53.50;33.95;;;;;;;2.39;94.99;102852.81;10413586;28;20042;-76
2022/04/16 02:34:19;;;;;;;51.20;33.35;;;;;;;2.24;95.10;102858.84;10431906;28;20532;-76
2022/04/16 02:39:19;;;;;;;53.60;34.92;;;;;;;2.11;95.31;102866.84;10461245;28;20040;-76
2022/04/16 02:49:39;;;;;;;48.13;32.38;;;;;;;1.94;95.34;102876.16;10440095;28;20041;-76
2022/04/16 02:54:40;;;;;;;50.08;33.42;;;;;;;1.99;95.88;102876.72;10429320;28;20061;-76
2022/04/16 02:59:40;;;;;;;60.45;38.42;;;;;;;1.97;95.75;102884.28;10435152;28;20147;-76
2022/04/16 03:04:41;;;;;;;62.38;38.55;;;;;;;2.00;95.99;102881.13;10410932;28;20033;-76
2022/04/16 03:09:41;;;;;;;59.67;38.33;;;;;;;1.89;96.24;102885.97;10411192;28;20064;-76
2022/04/16 03:20:06;;;;;;;56.42;37.90;;;;;;;1.65;95.88;102891.81;10465668;28;20041;-75
2022/04/16 03:25:09;;;;;;;48.92;30.27;;;;;;;1.58;96.17;102885.03;10463644;28;20028;-75
2022/04/16 03:30:15;;;;;;;65.57;38.10;;;;;;;1.68;96.13;102886.09;10470118;28;20041;-74
2022/04/16 03:35:18;;;;;;;62.25;38.80;;;;;;;1.70;96.54;102888.09;10435747;28;20078;-75
2022/04/16 03:40:19;;;;;;;57.45;35.13;;;;;;;1.57;96.95;102885.75;10427524;28;20026;-74
2022/04/16 03:45:24;;;;;;;43.60;32.22;;;;;;;1.37;96.16;102893.75;10396596;28;20069;-75
2022/04/16 03:50:26;;;;;;;56.05;36.78;;;;;;;1.27;96.83;102884.00;10394606;28;20064;-75
2022/04/16 04:00:47;;;;;;;54.35;35.33;;;;;;;1.36;96.67;102902.22;10373280;28;20034;-75
2022/04/16 04:05:53;;;;;;;66.88;38.72;;;;;;;1.48;96.79;102901.81;10370293;28;20458;-75
2022/04/16 04:10:53;;;;;;;64.93;40.70;;;;;;;1.52;96.76;102901.44;10384577;28;20128;-74
2022/04/16 04:15:54;;;;;;;64.50;38.05;;;;;;;1.48;96.94;102900.16;10406039;28;20125;-74
2022/04/16 04:20:56;;;;;;;61.78;36.95;;;;;;;1.37;96.72;102901.47;10392625;28;20547;-75
2022/04/16 04:25:56;;;;;;;68.22;42.03;;;;;;;1.30;97.35;102911.81;10360047;28;20477;-75
2022/04/16 04:30:57;;;;;;;61.97;39.30;;;;;;;1.26;97.42;102917.34;10383494;28;20060;-76
2022/04/16 04:35:57;;;;;;;65.18;42.75;;;;;;;1.27;97.63;102916.63;10382565;28;20037;-76
2022/04/16 04:41:00;;;;;;;62.67;39.60;;;;;;;1.29;97.53;102923.81;10386374;28;20130;-75
2022/04/16 04:46:00;;;;;;;70.75;43.85;;;;;;;1.30;97.37;102928.22;10420523;28;20048;-75
2022/04/16 04:51:01;;;;;;;82.55;46.85;;;;;;;1.28;97.62;102941.69;10436238;28;20465;-75
2022/04/16 04:56:02;;;;;;;78.43;51.95;;;;;;;1.30;97.41;102940.19;10430814;28;20404;-76
2022/04/16 05:06:21;;;;;;;104.00;55.03;;;;;;;1.57;98.20;102951.94;10539688;27;20133;-76
2022/04/16 05:11:21;;;;;;;90.53;51.85;;;;;;;1.78;98.13;102962.94;10509789;28;20039;-75
2022/04/16 05:16:22;;;;;;;86.05;51.50;;;;;;;1.89;98.63;102960.88;10506524;28;20119;-75
2022/04/16 05:21:22;;;;;;;79.60;50.88;;;;;;;2.24;99.25;102962.19;10517169;28;20033;-74
2022/04/16 05:26:23;;;;;;;82.15;51.40;;;;;;;2.59;99.75;102971.38;10507259;28;20107;-75
2022/04/16 05:31:27;;;;;;;78.72;48.60;;;;;;;2.95;100.00;102972.81;10511099;28;20060;-75
2022/04/16 05:36:28;;;;;;;81.90;53.88;;;;;;;3.19;100.00;102976.28;10460722;28;20044;-75
2022/04/16 05:41:29;;;;;;;70.68;44.45;;;;;;;3.52;100.00;102966.16;10519003;28;20028;-76
2022/04/16 05:46:30;;;;;;;67.55;46.30;;;;;;;4.03;100.00;102969.84;10489640;28;20046;-74
2022/04/16 05:51:30;;;;;;;68.32;43.40;;;;;;;5.17;100.00;102978.28;10509580;28;20032;-74
2022/04/16 05:56:31;;;;;;;60.15;39.80;;;;;;;5.88;100.00;102961.19;10494818;28;20038;-74
2022/04/16 06:01:31;;;;;;;55.80;34.15;;;;;;;6.47;94.96;102974.81;10507738;28;20055;-74
2022/04/16 06:06:32;;;;;;;42.22;27.98;;;;;;;7.78;91.63;102973.31;10469291;28;20033;-76
2022/04/16 06:11:32;;;;;;;29.35;23.15;;;;;;;9.80;80.93;102975.38;10468283;28;20021;-75
2022/04/16 06:16:33;;;;;;;28.42;19.88;;;;;;;11.50;72.26;102970.63;10429624;28;20025;-75
2022/04/16 06:21:33;;;;;;;28.77;18.52;;;;;;;13.24;68.24;102972.84;10446550;28;20021;-75
2022/04/16 06:26:35;;;;;;;25.30;19.25;;;;;;;14.25;59.10;102983.25;10458061;28;20480;-76
2022/04/16 06:31:36;;;;;;;28.13;19.42;;;;;;;14.64;57.55;102984.03;10457926;28;20549;-75
2022/04/16 06:36:38;;;;;;;31.88;18.58;;;;;;;14.99;56.51;102987.16;10439711;28;20053;-75
2022/04/16 06:41:38;;;;;;;25.63;19.35;;;;;;;15.60;53.67;102985.56;10440987;28;20439;-75
2022/04/16 06:46:39;;;;;;;23.73;19.33;;;;;;;16.07;53.11;102991.94;10459350;28;20068;-75
2022/04/16 06:51:39;;;;;;;25.13;19.52;;;;;;;16.55;50.22;102994.69;10454524;28;20068;-75
2022/04/16 06:56:40;;;;;;;25.35;17.88;;;;;;;16.88;49.29;102997.41;10383445;28;20065;-76
2022/04/16 07:01:40;;;;;;;28.70;21.27;;;;;;;17.06;48.88;102986.03;10401246;28;22012;-76
2022/04/16 07:06:42;;;;;;;25.67;18.70;;;;;;;17.63;47.32;102985.53;10424096;28;20116;-76
2022/04/16 07:11:43;;;;;;;22.77;17.42;;;;;;;17.81;46.06;102980.28;10439336;28;20562;-75
2022/04/16 07:16:43;;;;;;;22.67;17.67;;;;;;;17.56;47.18;102986.97;10439175;28;20110;-76
2022/04/16 07:21:44;;;;;;;23.67;18.87;;;;;;;17.76;46.34;102962.44;10439502;28;20087;-76
2022/04/16 07:26:47;;;;;;;24.33;19.23;;;;;;;17.79;45.61;102964.31;10439543;28;20090;-76
2022/04/16 07:31:48;;;;;;;22.17;16.63;;;;;;;18.24;44.80;102970.97;10454562;28;20032;-76
2022/04/16 07:36:48;;;;;;;25.50;17.98;;;;;;;18.34;46.00;102991.78;10478935;28;20094;-75
2022/04/16 07:41:51;;;;;;;21.77;15.97;;;;;;;19.44;43.20;102982.78;10480606;28;20460;-76
2022/04/16 07:46:51;;;;;;;23.60;17.52;;;;;;;18.97;43.08;102990.41;10497938;28;20036;-76
2022/04/16 07:51:52;;;;;;;21.13;14.73;;;;;;;19.02;42.70;102988.88;10491333;28;20079;-77
2022/04/16 07:56:52;;;;;;;25.47;15.37;;;;;;;19.28;43.81;102992.72;10427296;28;20031;-75
2022/04/16 08:01:53;;;;;;;24.37;15.47;;;;;;;19.71;41.51;102985.75;10476530;28;20188;-75
2022/04/16 08:06:53;;;;;;;22.93;15.60;;;;;;;19.88;41.12;102993.56;10490528;28;20071;-76
2022/04/16 08:11:54;;;;;;;21.40;16.07;;;;;;;20.88;40.30;102996.78;10478090;28;20396;-76
2022/04/16 08:16:55;;;;;;;21.37;16.77;;;;;;;21.48;39.08;102989.19;10477899;28;20488;-76
2022/04/16 08:21:55;;;;;;;22.20;13.97;;;;;;;21.46;38.06;102986.50;10477249;28;20068;-76
2022/04/16 08:26:56;;;;;;;18.57;14.60;;;;;;;21.87;37.42;102995.94;10459923;28;20480;-76
2022/04/16 08:31:57;;;;;;;20.77;15.07;;;;;;;22.45;37.84;102991.66;10449524;28;20036;-76
2022/04/16 08:36:57;;;;;;;17.90;15.13;;;;;;;22.30;36.75;102994.72;10453805;28;20032;-76
2022/04/16 08:41:58;;;;;;;21.87;15.40;;;;;;;22.61;36.37;102989.47;10437324;28;20037;-77
2022/04/16 08:46:59;;;;;;;19.40;14.03;;;;;;;23.04;36.22;102990.78;10433731;28;20060;-76
2022/04/16 08:52:00;;;;;;;18.63;13.80;;;;;;;22.60;35.78;103001.94;10457763;28;20090;-76
2022/04/16 08:57:00;;;;;;;16.17;12.53;;;;;;;22.38;34.66;102994.94;10443371;28;20059;-77
2022/04/16 09:02:01;;;;;;;15.53;12.27;;;;;;;22.34;34.75;102985.97;10473621;28;20465;-76
2022/04/16 09:07:02;;;;;;;13.43;10.90;;;;;;;22.92;34.08;102991.34;10435579;28;20039;-77
2022/04/16 09:12:03;;;;;;;13.35;9.43;;;;;;;23.13;32.40;102985.69;10417164;28;20025;-76
2022/04/16 09:17:10;;;;;;;11.83;9.30;;;;;;;23.37;33.03;102994.44;10418554;28;20528;-75
2022/04/16 09:22:10;;;;;;;10.50;7.60;;;;;;;23.51;34.05;102997.47;10414823;28;20033;-76
2022/04/16 09:27:11;;;;;;;8.33;5.83;;;;;;;23.43;30.02;102999.94;10418322;28;20488;-76
2022/04/16 09:32:23;;;;;;;8.80;6.93;;;;;;;23.31;30.85;102997.81;10432592;28;20056;-77
2022/04/16 09:37:24;;;;;;;11.48;6.43;;;;;;;23.86;30.90;103000.19;10403612;28;20065;-76
2022/04/16 09:42:28;;;;;;;8.03;6.37;;;;;;;23.46;31.09;102992.91;10432998;28;20065;-77
2022/04/16 09:47:29;;;;;;;8.38;5.10;;;;;;;23.36;29.48;102987.28;10434087;28;20131;-77
2022/04/16 09:52:29;;;;;;;8.50;5.43;;;;;;;23.55;30.81;102981.56;10415061;28;20033;-77
2022/04/16 09:57:31;;;;;;;10.03;6.87;;;;;;;22.62;29.43;102984.19;10416635;28;20065;-77
2022/04/16 10:02:33;;;;;;;;;;;;;;;22.94;28.50;102984.28;10423838;28;20052;-78
2022/04/16 10:07:33;;;;;;;6.50;5.00;;;;;;;22.72;28.72;102986.28;10443448;28;20004;-77
2022/04/16 10:17:53;;;;;;;8.95;5.20;;;;;;;21.83;30.52;102981.59;10429358;28;20037;-77
2022/04/16 10:22:57;;;;;;;7.07;5.50;;;;;;;22.68;29.31;102981.72;10398370;28;20045;-77
2022/04/16 10:28:03;;;;;;;8.07;5.18;;;;;;;22.56;29.75;102976.00;10442508;28;20044;-76
2022/04/16 10:33:20;;;;;;;8.27;5.82;;;;;;;22.60;30.07;102983.25;10400369;28;20086;-77
2022/04/16 10:38:25;;;;;;;5.95;4.75;;;;;;;22.61;29.34;102978.78;10424541;28;20041;-77
2022/04/16 10:43:32;;;;;;;6.28;4.65;;;;;;;21.96;31.21;102969.59;10441134;28;20423;-76
2022/04/16 10:48:34;;;;;;;8.50;6.22;;;;;;;22.37;30.49;102958.47;10423657;28;20025;-76
2022/04/16 10:53:36;;;;;;;7.70;4.95;;;;;;;21.66;31.39;102959.69;10408222;28;20048;-76
2022/04/16 10:58:37;;;;;;;4.90;3.78;;;;;;;22.57;29.35;102953.81;10398023;28;20033;-76
2022/04/16 11:03:47;;;;;;;6.50;4.65;;;;;;;23.05;30.28;102938.28;10468284;28;20530;-76
2022/04/16 11:08:48;;;;;;;7.45;5.65;;;;;;;22.55;29.42;102951.06;10475493;28;20072;-76
2022/04/16 11:13:49;;;;;;;10.18;6.93;;;;;;;23.46;30.93;102941.25;10424197;28;20089;-76
2022/04/16 11:18:49;;;;;;;11.27;8.07;;;;;;;23.02;28.92;102950.69;10439109;28;20060;-77
2022/04/16 11:23:54;;;;;;;8.70;6.88;;;;;;;22.00;30.99;102960.84;10422768;28;20037;-78
2022/04/16 11:34:17;;;;;;;10.25;7.20;;;;;;;21.03;32.87;102948.53;10450824;28;20584;-78
2022/04/16 11:39:21;;;;;;;10.02;7.13;;;;;;;21.69;30.09;102952.69;10497056;28;20031;-77
2022/04/16 11:44:50;;;;;;;9.05;8.05;;;;;;;21.96;30.89;102970.47;10479722;28;20024;-76
2022/04/16 11:49:52;;;;;;;7.55;6.03;;;;;;;22.27;31.46;102962.63;10493411;28;20486;-77
2022/04/16 11:55:21;;;;;;;9.98;6.70;;;;;;;22.50;32.59;102946.47;10468851;28;20135;-77
2022/04/16 12:00:26;;;;;;;9.65;6.70;;;;;;;22.28;29.99;102943.97;10453181;28;20033;-77
2022/04/16 12:05:30;;;;;;;8.40;6.97;;;;;;;21.84;31.49;102957.66;10475410;28;20049;-77
2022/04/16 12:10:31;;;;;;;10.70;7.53;;;;;;;21.41;30.85;102948.16;10496986;28;20040;-79
2022/04/16 12:15:32;;;;;;;8.07;6.00;;;;;;;21.78;29.57;102949.47;10476584;28;20078;-78
2022/04/16 12:20:32;;;;;;;10.90;6.10;;;;;;;22.48;30.10;102940.19;10515941;28;20027;-76
2022/04/16 12:25:33;;;;;;;8.50;5.88;;;;;;;23.13;28.76;102937.63;10478082;28;20029;-76
2022/04/16 12:30:35;;;;;;;9.82;7.00;;;;;;;23.18;27.39;102927.09;10462434;28;20491;-78
2022/04/16 12:35:40;;;;;;;10.02;6.93;;;;;;;23.12;28.16;102916.25;10493971;28;20028;-77
2022/04/16 12:40:41;;;;;;;8.70;5.95;;;;;;;22.83;28.59;102927.88;10494170;28;20029;-76
2022/04/16 12:45:45;;;;;;;9.93;6.27;;;;;;;22.19;29.02;102927.69;10493269;28;20039;-75
2022/04/16 12:50:45;;;;;;;8.35;6.65;;;;;;;22.49;31.78;102926.88;10493002;28;20825;-75
2022/04/16 12:55:46;;;;;;;7.45;6.30;;;;;;;22.52;30.53;102921.63;10488486;28;20037;-76
2022/04/16 13:00:49;;;;;;;9.10;7.47;;;;;;;22.17;29.09;102925.84;10494815;28;20048;-74
2022/04/16 13:05:49;;;;;;;8.10;7.15;;;;;;;21.89;30.04;102914.28;10493644;28;20044;-75
2022/04/16 13:10:50;;;;;;;8.15;7.03;;;;;;;21.98;28.35;102919.91;10494173;28;20033;-75
2022/04/16 13:15:51;;;;;;;14.55;7.88;;;;;;;21.97;28.38;102908.31;10492659;28;20575;-74
2022/04/16 13:20:53;;;;;;;9.70;6.43;;;;;;;21.55;28.88;102914.91;10459026;28;20033;-76
2022/04/16 13:25:53;;;;;;;11.05;8.93;;;;;;;21.67;28.35;102905.56;10464947;28;20385;-75
2022/04/16 13:30:55;;;;;;;8.20;5.88;;;;;;;21.29;30.78;102900.66;10460318;28;20098;-75
2022/04/16 13:35:56;;;;;;;10.05;6.57;;;;;;;22.10;30.09;102900.72;10462547;28;20036;-75
2022/04/16 13:46:15;;;;;;;7.80;6.05;;;;;;;22.09;27.61;102888.25;10501814;28;20532;-74
2022/04/16 13:51:15;;;;;;;9.18;6.63;;;;;;;22.68;29.51;102882.06;10501524;28;20123;-74
2022/04/16 13:56:16;;;;;;;9.00;7.90;;;;;;;22.32;28.19;102869.38;10501017;28;20361;-74
2022/04/16 14:01:17;;;;;;;10.73;8.07;;;;;;;21.45;30.17;102878.16;10500070;28;20103;-74
2022/04/16 14:06:18;;;;;;;10.18;7.53;;;;;;;21.73;29.35;102870.19;10500751;28;20511;-74
2022/04/16 14:11:18;;;;;;;9.55;7.97;;;;;;;21.31;28.90;102863.44;10448303;28;20052;-75
2022/04/16 14:16:19;;;;;;;11.73;8.13;;;;;;;21.38;31.05;102861.03;10458030;28;20065;-74
2022/04/16 14:21:19;;;;;;;8.95;7.03;;;;;;;21.52;30.59;102853.53;10441596;28;20072;-75
2022/04/16 14:26:20;;;;;;;7.78;6.10;;;;;;;22.40;29.85;102847.44;10457712;28;20056;-75
2022/04/16 14:31:21;;;;;;;8.57;6.38;;;;;;;21.70;30.52;102853.25;10456826;28;20448;-75
2022/04/16 14:36:22;;;;;;;13.48;7.00;;;;;;;21.20;29.90;102856.00;10441550;28;20450;-74
2022/04/16 14:41:23;;;;;;;9.87;7.63;;;;;;;20.65;32.51;102849.50;10489019;28;20092;-76
2022/04/16 14:46:24;;;;;;;7.45;6.00;;;;;;;20.45;32.75;102841.69;10498121;28;20086;-76
2022/04/16 14:51:25;;;;;;;8.50;6.28;;;;;;;20.55;31.03;102840.31;10497455;28;20597;-75
2022/04/16 14:56:26;;;;;;;8.20;6.60;;;;;;;19.97;32.32;102846.91;10497539;28;20039;-77
2022/04/16 15:01:26;;;;;;;10.38;7.38;;;;;;;19.90;32.12;102838.69;10481667;28;20297;-78
2022/04/16 15:06:27;;;;;;;10.70;7.15;;;;;;;19.83;32.37;102835.69;10481578;28;20718;-78
2022/04/16 15:11:28;;;;;;;9.10;6.82;;;;;;;19.87;32.45;102830.56;10465137;28;20041;-78
2022/04/16 15:16:28;;;;;;;9.93;6.85;;;;;;;19.99;33.18;102839.91;10438095;28;20051;-78
2022/04/16 15:21:29;;;;;;;10.25;6.50;;;;;;;19.70;32.78;102834.28;10456347;28;20047;-77
2022/04/16 15:26:31;;;;;;;7.45;5.38;;;;;;;19.54;33.78;102838.06;10482951;28;20494;-76
2022/04/16 15:31:36;;;;;;;;;;;;;;;19.04;33.77;102820.91;10462642;28;20465;-75
2022/04/16 15:36:39;;;;;;;10.20;6.88;;;;;;;18.83;33.87;102825.25;10479903;28;20322;-75
2022/04/16 15:41:42;;;;;;;9.80;6.72;;;;;;;18.54;34.56;102816.88;10494174;28;20056;-76
2022/04/16 15:46:51;;;;;;;10.15;7.07;;;;;;;18.12;34.39;102822.91;10477610;28;20078;-81
2022/04/16 15:51:51;;;;;;;10.48;6.10;;;;;;;17.51;37.68;102814.63;10487176;28;20979;-77
2022/04/16 15:56:54;;;;;;;10.38;6.82;;;;;;;16.48;36.88;102810.16;10493586;28;20020;-78
2022/04/16 16:01:55;;;;;;;8.40;6.65;;;;;;;15.79;41.56;102810.75;10473618;28;20240;-77
2022/04/16 16:06:55;;;;;;;8.13;5.70;;;;;;;15.42;39.97;102817.41;10402067;28;20041;-76
2022/04/16 16:11:56;;;;;;;9.02;5.88;;;;;;;15.28;41.29;102813.97;10443003;28;20068;-77
2022/04/16 16:16:56;;;;;;;7.85;5.57;;;;;;;15.02;41.06;102801.84;10451783;28;20029;-76
2022/04/16 16:21:58;;;;;;;9.73;5.40;;;;;;;14.87;43.62;102808.00;10454518;28;20118;-76
2022/04/16 16:26:58;;;;;;;6.80;5.28;;;;;;;14.76;42.55;102803.81;10433698;28;20528;-76
2022/04/16 16:31:59;;;;;;;10.02;5.18;;;;;;;14.65;43.35;102800.50;10434533;28;20060;-76
2022/04/16 16:37:01;;;;;;;8.15;5.95;;;;;;;14.42;42.40;102806.94;10450107;28;20049;-77
2022/04/16 16:42:02;;;;;;;9.40;6.82;;;;;;;14.26;43.37;102797.19;10428881;28;20028;-76
2022/04/16 16:47:03;;;;;;;7.20;4.90;;;;;;;14.10;42.19;102798.84;10433843;28;20472;-76
2022/04/16 16:52:03;;;;;;;9.70;5.93;;;;;;;14.06;43.79;102802.09;10410667;28;20025;-75
2022/04/16 16:57:04;;;;;;;8.02;5.60;;;;;;;14.02;44.56;102793.06;10432200;28;20047;-74
2022/04/16 17:05:01;;;;;;;7.90;4.38;;;;;;;13.85;42.63;102796.34;10450647;28;20052;-76
2022/04/16 17:07:26;;;;;;;6.28;3.83;;;;;;;13.67;43.22;102783.78;10453151;28;20442;-76
2022/04/16 17:12:27;;;;;;;7.00;4.68;;;;;;;13.61;42.03;102783.38;10399023;28;20115;-76
2022/04/16 17:22:47;;;;;;;9.45;3.83;;;;;;;12.73;44.84;102786.22;10445545;28;20032;-76
2022/04/16 17:27:50;;;;;;;6.88;3.95;;;;;;;12.56;44.47;102788.59;10450554;28;20068;-76
2022/04/16 17:32:51;;;;;;;7.45;4.47;;;;;;;12.25;48.97;102791.69;10430816;28;20395;-77
2022/04/16 17:37:55;;;;;;;5.13;3.65;;;;;;;11.94;48.22;102792.06;10397924;28;20048;-77
2022/04/16 17:42:55;;;;;;;5.80;3.25;;;;;;;11.79;48.00;102796.16;10437004;28;20108;-77
2022/04/16 17:47:57;;;;;;;6.10;3.00;;;;;;;11.64;48.54;102804.72;10419571;28;20028;-77
2022/04/16 17:52:57;;;;;;;4.63;2.20;;;;;;;11.48;49.59;102812.25;10418458;28;20048;-75
2022/04/16 17:58:00;;;;;;;5.47;3.03;;;;;;;11.36;49.87;102807.91;10427852;28;20037;-76
2022/04/16 18:03:01;;;;;;;5.45;3.45;;;;;;;11.20;50.19;102803.22;10436650;28;20484;-75
2022/04/16 18:08:01;;;;;;;5.68;2.38;;;;;;;10.99;49.79;102810.34;10407321;28;20095;-78
2022/04/16 18:13:03;;;;;;;5.95;2.60;;;;;;;10.72;52.11;102817.88;10428339;28;20087;-75
2022/04/16 18:18:04;;;;;;;42.77;23.17;;;;;;;10.42;52.27;102818.22;10435421;28;20421;-75
2022/04/16 18:23:05;;;;;;;20.50;11.07;;;;;;;9.90;54.19;102819.22;10421532;28;20401;-76
2022/04/16 18:28:05;;;;;;;6.65;2.70;;;;;;;9.55;56.74;102824.28;10444781;28;20041;-76
2022/04/16 18:33:06;;;;;;;4.78;1.70;;;;;;;9.32;57.26;102834.50;10438710;28;20744;-76
2022/04/16 18:38:07;;;;;;;5.90;2.88;;;;;;;8.95;59.29;102832.28;10436997;28;20079;-76
2022/04/16 18:43:07;;;;;;;6.43;3.47;;;;;;;8.47;60.36;102844.69;10438831;28;20067;-76
2022/04/16 18:48:08;;;;;;;6.40;2.85;;;;;;;8.28;60.59;102862.09;10439034;28;20060;-76
2022/04/16 18:53:09;;;;;;;4.88;2.30;;;;;;;8.14;59.80;102861.78;10458609;28;20072;-75
2022/04/16 18:58:09;;;;;;;6.15;3.05;;;;;;;7.82;61.38;102864.13;10421571;28;20037;-76
2022/04/16 19:08:28;;;;;;;4.40;1.88;;;;;;;7.28;62.58;102884.44;10457529;28;20120;-76
2022/04/16 19:13:29;;;;;;;4.72;1.90;;;;;;;7.01;63.83;102890.59;10490707;28;20575;-76
2022/04/16 19:18:30;;;;;;;6.47;2.25;;;;;;;6.78;65.08;102899.72;10480658;28;20110;-76
2022/04/16 19:23:30;;;;;;;5.88;3.83;;;;;;;6.72;65.42;102899.16;10477932;28;20020;-76
2022/04/16 19:28:31;;;;;;;5.30;2.90;;;;;;;6.71;63.01;102915.53;10444020;28;20041;-76
2022/04/16 19:33:31;;;;;;;5.20;3.58;;;;;;;6.50;64.88;102910.09;10487108;28;20033;-76
2022/04/16 19:38:32;;;;;;;8.55;3.45;;;;;;;6.58;63.87;102906.53;10474228;28;20028;-76
2022/04/16 19:43:32;;;;;;;6.88;3.60;;;;;;;6.39;64.47;102915.94;10479006;28;20048;-76
2022/04/16 19:48:33;;;;;;;3.78;2.45;;;;;;;6.14;67.09;102913.53;10479787;28;20455;-76
2022/04/16 19:53:33;;;;;;;6.13;2.90;;;;;;;6.07;66.56;102918.88;10494555;28;20043;-76
2022/04/16 19:58:34;;;;;;;7.00;2.50;;;;;;;5.98;65.81;102903.25;10493486;28;20479;-77
2022/04/16 20:03:35;;;;;;;4.95;2.30;;;;;;;5.87;67.22;102899.59;10438278;28;20051;-76
2022/04/16 20:13:56;;;;;;;6.57;3.40;;;;;;;5.72;64.31;102907.69;10426184;28;20029;-76
2022/04/16 20:18:57;;;;;;;6.93;3.22;;;;;;;5.62;64.66;102906.59;10439320;28;20033;-76
2022/04/16 20:23:58;;;;;;;5.55;2.63;;;;;;;5.56;65.07;102913.00;10436681;28;20024;-76
2022/04/16 20:28:59;;;;;;;5.25;3.30;;;;;;;5.43;65.55;102905.69;10435726;28;20037;-76
2022/04/16 20:33:59;;;;;;;7.95;4.68;;;;;;;5.34;66.08;102915.13;10420294;28;20064;-77
2022/04/16 20:39:00;;;;;;;9.43;5.45;;;;;;;5.42;64.98;102906.44;10453521;28;20488;-77
2022/04/16 20:49:19;;;;;;;8.55;4.80;;;;;;;4.98;67.47;102908.91;10439132;28;20425;-77
2022/04/16 20:54:20;;;;;;;5.88;4.05;;;;;;;4.84;69.60;102903.97;10434101;28;20128;-76
2022/04/16 20:59:20;;;;;;;10.50;5.45;;;;;;;4.66;69.79;102903.00;10443126;28;20468;-76
2022/04/16 21:04:21;;;;;;;10.60;4.93;;;;;;;4.61;68.83;102897.31;10434813;28;20069;-77
2022/04/16 21:09:22;;;;;;;6.90;4.32;;;;;;;4.61;68.81;102893.81;10436220;28;20036;-76
2022/04/16 21:14:22;;;;;;;7.85;4.80;;;;;;;4.64;67.80;102895.03;10445671;28;20061;-76
2022/04/16 21:19:23;;;;;;;7.95;4.95;;;;;;;4.50;68.25;102888.41;10453319;28;20447;-76
2022/04/16 21:24:23;;;;;;;9.38;5.28;;;;;;;4.41;69.19;102890.06;10452008;28;20057;-76
2022/04/16 21:29:24;;;;;;;7.22;4.63;;;;;;;4.24;68.61;102889.19;10434609;28;20078;-77
2022/04/16 21:34:24;;;;;;;9.57;5.25;;;;;;;4.23;68.93;102886.41;10452302;28;21399;-76
2022/04/16 21:39:24;;;;;;;8.52;5.03;;;;;;;4.11;70.21;102874.00;10453319;28;20067;-76
2022/04/16 21:44:25;;;;;;;8.75;6.00;;;;;;;3.99;70.61;102882.16;10430827;28;20037;-77
2022/04/16 21:49:26;;;;;;;12.60;4.78;;;;;;;3.98;69.76;102878.63;10442609;28;20060;-76
2022/04/16 21:54:27;;;;;;;5.65;4.40;;;;;;;4.07;71.18;102877.00;10460542;28;20052;-77
2022/04/16 21:59:27;;;;;;;7.47;5.22;;;;;;;4.05;72.23;102873.34;10459490;28;20033;-76
2022/04/16 22:04:28;;;;;;;7.70;4.65;;;;;;;4.25;69.19;102880.66;10442443;28;20065;-77
2022/04/16 22:09:28;;;;;;;7.65;5.30;;;;;;;4.17;70.79;102885.78;10460400;28;20523;-77
2022/04/16 22:14:29;;;;;;;9.20;5.32;;;;;;;4.04;69.53;102884.47;10457151;28;20067;-77
2022/04/16 22:19:30;;;;;;;11.25;6.65;;;;;;;4.06;68.40;102887.22;10440505;28;20064;-77
2022/04/16 22:24:30;;;;;;;10.15;6.63;;;;;;;3.97;70.92;102893.28;10440987;28;20061;-77
2022/04/16 22:29:31;;;;;;;7.60;5.10;;;;;;;3.86;69.01;102893.78;10440371;28;20155;-77
2022/04/16 22:34:31;;;;;;;8.38;5.30;;;;;;;3.78;69.06;102894.66;10457421;28;20120;-77
2022/04/16 22:44:51;;;;;;;8.52;5.18;;;;;;;3.93;66.59;102892.75;10457874;28;20409;-76
2022/04/16 22:49:51;;;;;;;9.48;4.32;;;;;;;3.93;68.43;102893.69;10440240;28;20071;-76
2022/04/16 22:54:51;;;;;;;9.35;5.55;;;;;;;3.94;66.56;102894.59;10439134;28;20072;-76
2022/04/16 22:59:52;;;;;;;9.90;4.97;;;;;;;3.89;65.44;102885.41;10439508;28;20461;-76
2022/04/16 23:04:52;;;;;;;7.80;5.97;;;;;;;3.70;65.79;102891.22;10457746;28;20076;-77
2022/04/16 23:09:53;;;;;;;8.35;4.63;;;;;;;3.52;65.88;102884.97;10423395;28;20503;-77
2022/04/16 23:20:13;;;;;;;9.25;5.20;;;;;;;3.04;68.99;102882.34;10441273;28;20028;-76
2022/04/16 23:25:14;;;;;;;12.13;5.75;;;;;;;2.93;70.76;102873.41;10437808;28;20116;-76
2022/04/16 23:30:14;;;;;;;7.50;4.43;;;;;;;3.07;70.59;102872.31;10422163;28;20036;-77
2022/04/16 23:35:15;;;;;;;6.78;6.05;;;;;;;3.16;70.33;102872.44;10439838;28;20463;-77
2022/04/16 23:40:16;;;;;;;8.93;5.20;;;;;;;3.30;66.51;102866.16;10438518;28;20060;-76
2022/04/16 23:50:39;;;;;;;6.22;4.32;;;;;;;3.19;67.36;102859.84;10426890;28;20033;-77
2022/04/16 23:55:39;;;;;;;9.50;5.10;;;;;;;3.11;68.40;102850.31;10437489;28;20032;-76
